Time;durP1;ratioP1;P1;durP2;ratioP2;P2;SDS_P1;SDS_P2;PMS_P1;PMS_P2;Temp;Humidity;BMP_temperature;BMP_pressure;BME280_temperature;BME280_humidity;BME280_pressure;Samples;Min_cycle;Max_cycle;Signal;HPM_P1;HPM_P2
2022/01/05 00:00:52;;;;;;;6.60;2.20;;;;;;;8.83;79.32;97859.38;5093121;28;20024;-50
2022/01/05 00:03:18;;;;;;;14.27;3.53;;;;;;;8.83;79.92;97866.44;5093128;28;20379;-50
2022/01/05 00:05:44;;;;;;;4.95;2.15;;;;;;;8.83;80.06;97871.66;5093037;28;20020;-51
2022/01/05 00:08:12;;;;;;;4.55;1.20;;;;;;;8.92;80.33;97873.84;5093005;28;20038;-51
2022/01/05 00:10:38;;;;;;;7.07;3.20;;;;;;;8.92;80.20;97875.66;5092939;28;20103;-51
2022/01/05 00:13:04;;;;;;;4.68;2.20;;;;;;;8.92;80.10;97860.75;5092924;28;20055;-51
2022/01/05 00:15:29;;;;;;;4.68;2.38;;;;;;;8.87;79.83;97867.63;5092858;28;20085;-51
2022/01/05 00:17:55;;;;;;;4.82;2.13;;;;;;;8.82;80.51;97864.84;5092910;28;20038;-51
2022/01/05 00:20:22;;;;;;;15.63;5.63;;;;;;;8.78;80.36;97869.69;5092810;28;20042;-51
2022/01/05 00:22:47;;;;;;;12.77;8.38;;;;;;;8.78;80.49;97880.16;5092801;28;20028;-50
2022/01/05 00:25:13;;;;;;;12.15;7.43;;;;;;;8.81;80.45;97890.19;5092714;28;20085;-50
2022/01/05 00:27:39;;;;;;;25.88;18.92;;;;;;;8.79;79.94;97882.56;5091388;28;20024;-51
2022/01/05 00:30:05;;;;;;;46.35;3.50;;;;;;;8.72;79.12;97887.00;5092521;28;20020;-50
2022/01/05 00:32:31;;;;;;;3.80;1.02;;;;;;;8.51;78.91;97893.34;5092633;28;20123;-50
2022/01/05 00:34:56;;;;;;;6.95;2.00;;;;;;;8.24;79.10;97892.56;5092589;28;20544;-51
2022/01/05 00:37:22;;;;;;;5.47;3.17;;;;;;;8.17;79.70;97895.19;5092515;28;20020;-50
2022/01/05 00:39:48;;;;;;;2.78;1.45;;;;;;;8.04;79.32;97891.81;5092500;28;20374;-51
2022/01/05 00:42:14;;;;;;;11.10;1.80;;;;;;;7.98;80.08;97898.63;5091095;28;20035;-50
2022/01/05 00:44:40;;;;;;;11.55;1.60;;;;;;;8.01;79.99;97898.25;5091100;28;20048;-50
2022/01/05 00:47:06;;;;;;;7.65;2.13;;;;;;;8.13;80.48;97888.78;5092158;28;20488;-50
2022/01/05 00:49:31;;;;;;;7.72;2.28;;;;;;;8.04;79.87;97900.44;5092213;28;20402;-50
2022/01/05 00:51:57;;;;;;;15.45;2.20;;;;;;;7.97;80.61;97910.09;5092247;28;20031;-51
2022/01/05 00:54:23;;;;;;;10.88;2.83;;;;;;;8.04;80.86;97915.31;5091865;28;20489;-51
2022/01/05 00:56:48;;;;;;;3.95;1.38;;;;;;;8.01;80.43;97911.31;5090876;28;20032;-51
2022/01/05 00:59:14;;;;;;;6.63;1.13;;;;;;;7.86;79.37;97916.72;5090880;28;20500;-50
2022/01/05 01:01:40;;;;;;;6.47;1.48;;;;;;;7.70;79.26;97931.00;5092100;28;20024;-51
2022/01/05 01:04:07;;;;;;;22.63;7.43;;;;;;;7.66;79.59;97924.56;5092087;28;20020;-51
2022/01/05 01:06:32;;;;;;;4.32;1.95;;;;;;;7.74;79.34;97921.75;5092126;28;20027;-50
2022/01/05 01:08:58;;;;;;;7.50;1.45;;;;;;;7.59;79.10;97934.22;5090643;28;20028;-50
2022/01/05 01:11:24;;;;;;;13.32;1.60;;;;;;;7.54;80.04;97934.78;5092027;28;20535;-50
2022/01/05 01:13:50;;;;;;;4.80;0.70;;;;;;;7.67;80.42;97934.00;5092276;28;20051;-50
2022/01/05 01:16:17;;;;;;;6.53;1.90;;;;;;;7.66;80.12;97937.63;5091991;28;20509;-50
2022/01/05 01:18:43;;;;;;;4.32;0.90;;;;;;;7.55;79.79;97940.84;5091923;28;20051;-50
2022/01/05 01:21:09;;;;;;;5.53;1.20;;;;;;;7.43;80.28;97943.22;5091897;28;20138;-51
2022/01/05 01:23:36;;;;;;;11.90;2.22;;;;;;;7.28;80.02;97940.75;5091966;28;20020;-50
2022/01/05 01:26:02;;;;;;;3.75;0.90;;;;;;;7.23;80.30;97930.13;5091909;28;20022;-50
2022/01/05 01:28:28;;;;;;;7.20;1.10;;;;;;;7.27;80.40;97927.94;5091842;28;20111;-50
2022/01/05 01:30:53;;;;;;;10.70;1.70;;;;;;;7.20;80.68;97920.91;5091880;28;20039;-50
2022/01/05 01:33:20;;;;;;;8.18;4.43;;;;;;;7.42;81.68;97925.94;5090743;28;20067;-50
2022/01/05 01:35:46;;;;;;;5.88;3.70;;;;;;;7.52;80.34;97915.91;5091726;28;20028;-50
2022/01/05 01:38:12;;;;;;;4.65;1.90;;;;;;;7.34;77.47;97916.47;5091683;28;20054;-50
2022/01/05 01:40:38;;;;;;;7.43;2.38;;;;;;;7.08;78.86;97919.03;5091752;28;20105;-49
2022/01/05 01:43:04;;;;;;;8.38;1.70;;;;;;;6.87;78.32;97909.56;5091702;28;20020;-50
2022/01/05 01:45:30;;;;;;;4.63;1.17;;;;;;;6.66;79.33;97913.91;5090384;28;20379;-50
2022/01/05 01:47:56;;;;;;;3.22;0.98;;;;;;;6.52;79.28;97926.06;5091432;28;20043;-50
2022/01/05 01:50:22;;;;;;;4.13;1.80;;;;;;;6.40;80.04;97933.63;5091564;28;20024;-50
2022/01/05 01:52:48;;;;;;;1.70;0.90;;;;;;;6.37;81.01;97941.00;5091686;28;20020;-49
2022/01/05 01:55:14;;;;;;;2.38;0.85;;;;;;;6.33;80.85;97935.38;5091573;28;20485;-49
2022/01/05 01:57:43;;;;;;;2.33;0.93;;;;;;;6.27;80.31;97943.16;5091580;28;20023;-48
2022/01/05 02:00:09;;;;;;;1.95;1.00;;;;;;;6.22;80.31;97945.50;5090181;28;20038;-49
2022/01/05 02:02:37;;;;;;;3.75;2.38;;;;;;;6.14;80.43;97944.69;5091542;28;20051;-50
2022/01/05 02:05:03;;;;;;;1.48;1.38;;;;;;;6.08;80.50;97937.63;5090176;28;20020;-48
2022/01/05 02:07:29;;;;;;;2.92;2.05;;;;;;;6.04;80.38;97949.41;5094181;28;20035;-50
2022/01/05 02:09:55;;;;;;;2.08;1.13;;;;;;;5.96;79.96;97947.75;5095219;28;20052;-50
2022/01/05 02:12:26;;;;;;;2.13;1.05;;;;;;;5.96;81.00;97950.34;5095318;28;20458;-50
2022/01/05 02:14:54;;;;;;;1.10;0.88;;;;;;;5.96;79.77;97954.78;5095263;28;20020;-50
2022/01/05 02:17:24;;;;;;;2.25;1.08;;;;;;;5.94;80.70;97960.13;5093861;28;20032;-49
2022/01/05 02:19:50;;;;;;;3.40;2.00;;;;;;;5.95;81.50;97971.38;5095151;28;20020;-49
2022/01/05 02:22:16;;;;;;;4.70;3.10;;;;;;;6.02;81.75;97964.44;5095147;28;20028;-49
2022/01/05 02:24:47;;;;;;;4.15;1.80;;;;;;;6.14;81.58;97964.72;5095087;28;20016;-50
2022/01/05 02:27:14;;;;;;;2.67;2.33;;;;;;;6.09;80.43;97960.06;5095049;28;20051;-49
2022/01/05 02:29:39;;;;;;;6.35;0.70;;;;;;;6.07;80.59;97966.47;5095119;28;20366;-49
2022/01/05 02:32:06;;;;;;;1.05;0.88;;;;;;;5.96;79.79;97962.59;5094878;28;20050;-50
2022/01/05 02:34:32;;;;;;;0.68;0.43;;;;;;;5.83;78.76;97960.63;5094910;28;20020;-50
2022/01/05 02:36:58;;;;;;;3.72;0.90;;;;;;;5.71;79.29;97954.31;5094792;28;20481;-49
2022/01/05 02:39:23;;;;;;;0.60;0.60;;;;;;;5.62;79.16;97964.06;5094801;28;20024;-48
2022/01/05 02:41:50;;;;;;;1.42;0.90;;;;;;;5.51;79.61;97961.94;5094682;28;20058;-49
2022/01/05 02:44:16;;;;;;;7.55;1.73;;;;;;;5.48;79.71;97957.91;5094716;28;20035;-49
2022/01/05 02:46:41;;;;;;;4.53;2.33;;;;;;;5.52;80.23;97958.34;5094415;28;20020;-49
2022/01/05 02:49:07;;;;;;;5.45;2.97;;;;;;;5.59;80.25;97965.25;5094899;28;20020;-49
2022/01/05 02:51:33;;;;;;;6.72;2.15;;;;;;;5.67;80.56;97969.50;5094484;28;20035;-49
2022/01/05 02:53:58;;;;;;;4.82;1.27;;;;;;;5.65;78.45;97966.28;5094525;28;20026;-49
2022/01/05 02:56:24;;;;;;;6.15;2.05;;;;;;;5.70;80.30;97966.53;5094449;28;20028;-48
2022/01/05 02:58:50;;;;;;;4.78;1.20;;;;;;;5.66;80.24;97965.28;5094374;28;20024;-49
2022/01/05 03:01:15;;;;;;;5.90;2.67;;;;;;;5.65;80.13;97970.69;5094414;28;20024;-50
2022/01/05 03:03:41;;;;;;;4.18;1.52;;;;;;;5.70;79.32;97971.75;5094301;28;20100;-48
2022/01/05 03:06:07;;;;;;;2.65;1.42;;;;;;;5.74;79.45;97957.34;5092891;28;20482;-50
2022/01/05 03:08:33;;;;;;;1.35;0.90;;;;;;;5.86;79.23;97959.47;5094118;28;20030;-49
2022/01/05 03:10:59;;;;;;;0.43;0.43;;;;;;;5.82;77.40;97963.44;5094123;28;20115;-49
2022/01/05 03:13:25;;;;;;;0.82;0.40;;;;;;;5.60;76.37;97955.63;5092830;28;20024;-49
2022/01/05 03:15:52;;;;;;;0.82;0.63;;;;;;;5.31;77.37;97952.16;5094345;28;20393;-49
2022/01/05 03:18:18;;;;;;;0.85;0.47;;;;;;;5.14;78.00;97958.56;5093775;28;20024;-48
2022/01/05 03:20:46;;;;;;;0.85;0.50;;;;;;;4.93;78.11;97965.34;5093974;28;20492;-49
2022/01/05 03:23:12;;;;;;;0.88;0.38;;;;;;;4.84;78.73;97965.63;5093964;28;20052;-48
2022/01/05 03:25:39;;;;;;;0.47;0.45;;;;;;;4.78;78.79;97972.34;5093872;28;20059;-48
2022/01/05 03:28:04;;;;;;;3.88;1.48;;;;;;;4.76;80.05;97969.13;5093856;28;20012;-49
2022/01/05 03:30:30;;;;;;;1.25;0.90;;;;;;;4.75;79.94;97972.72;5092381;28;20030;-49
2022/01/05 03:35:29;;;;;;;0.90;0.60;;;;;;;4.80;80.23;97976.38;5093758;28;20046;-50
2022/01/05 03:37:56;;;;;;;2.47;1.67;;;;;;;4.88;80.29;97978.06;5093595;28;20099;-49
2022/01/05 03:40:22;;;;;;;5.05;2.45;;;;;;;4.98;80.92;97993.38;5093575;28;20401;-48
2022/01/05 03:42:48;;;;;;;4.15;2.25;;;;;;;5.15;80.76;98004.38;5093522;28;20036;-49
2022/01/05 03:45:13;;;;;;;2.08;1.30;;;;;;;5.24;80.41;97997.28;5093502;28;20082;-48
2022/01/05 03:47:39;;;;;;;4.35;1.25;;;;;;;5.26;78.88;97993.50;5093213;28;20080;-49
2022/01/05 03:50:06;;;;;;;1.42;0.80;;;;;;;5.12;78.85;97989.16;5093266;28;20048;-49
2022/01/05 03:52:32;;;;;;;0.70;0.35;;;;;;;5.02;79.29;97994.63;5093421;28;20028;-48
2022/01/05 03:54:58;;;;;;;4.05;2.38;;;;;;;4.96;80.41;98001.38;5093258;28;20439;-48
2022/01/05 03:57:25;;;;;;;4.68;2.40;;;;;;;5.14;81.78;98000.97;5091950;28;20394;-48
2022/01/05 03:59:51;;;;;;;7.68;4.18;;;;;;;5.55;82.70;98000.44;5093243;28;20074;-48
2022/01/05 04:02:17;;;;;;;3.92;1.85;;;;;;;5.86;82.06;97994.13;5093109;28;20024;-49
2022/01/05 04:04:43;;;;;;;6.53;2.65;;;;;;;5.76;81.82;97994.41;5093103;28;20028;-49
2022/01/05 04:07:09;;;;;;;4.45;3.08;;;;;;;5.73;80.17;97999.19;5093034;28;20031;-48
2022/01/05 04:09:35;;;;;;;2.15;1.05;;;;;;;5.66;80.16;97998.34;5092978;28;20070;-49
2022/01/05 04:12:01;;;;;;;15.20;11.70;;;;;;;5.59;80.36;98000.84;5091635;28;20455;-49
2022/01/05 04:14:26;;;;;;;3.22;2.42;;;;;;;5.60;80.85;98013.69;5093012;28;20020;-48
2022/01/05 04:16:52;;;;;;;19.98;12.20;;;;;;;5.88;82.23;98023.38;5092892;28;20043;-48
2022/01/05 04:19:18;;;;;;;0.40;0.40;;;;;;;5.97;80.23;98032.69;5091514;28;20607;-48
2022/01/05 04:21:43;;;;;;;9.25;0.93;;;;;;;5.98;80.92;98025.69;5091480;28;20524;-49
2022/01/05 04:24:09;;;;;;;4.35;1.48;;;;;;;6.26;80.56;98027.50;5092790;28;20031;-49
2022/01/05 04:26:35;;;;;;;7.55;3.13;;;;;;;6.14;79.84;98027.25;5092716;28;20024;-48
2022/01/05 04:29:00;;;;;;;7.90;3.58;;;;;;;5.87;79.15;98026.16;5091953;28;20020;-48
2022/01/05 04:31:26;;;;;;;3.47;2.92;;;;;;;5.67;79.55;98021.56;5092631;28;20024;-48
2022/01/05 04:33:52;;;;;;;2.92;2.08;;;;;;;5.64;79.08;98029.75;5091277;28;20051;-48
2022/01/05 04:36:17;;;;;;;0.73;0.50;;;;;;;5.60;77.54;98036.31;5092610;28;20389;-48
2022/01/05 04:38:43;;;;;;;1.88;1.35;;;;;;;5.57;78.08;98047.09;5091193;28;20409;-48
2022/01/05 04:41:09;;;;;;;3.30;1.50;;;;;;;5.62;79.44;98046.56;5092494;28;20444;-48
2022/01/05 04:43:35;;;;;;;1.55;0.85;;;;;;;5.79;79.94;98043.53;5092475;28;20019;-49
2022/01/05 04:46:00;;;;;;;2.70;2.00;;;;;;;5.88;78.95;98044.22;5092336;28;20517;-49
2022/01/05 04:48:26;;;;;;;2.30;1.40;;;;;;;5.86;78.67;98048.78;5092193;28;20044;-49
2022/01/05 04:50:52;;;;;;;3.60;0.90;;;;;;;5.92;79.86;98062.88;5092218;28;20020;-48
2022/01/05 04:53:18;;;;;;;1.13;0.60;;;;;;;6.03;79.26;98056.38;5092261;28;20085;-47
2022/01/05 04:55:43;;;;;;;3.35;0.73;;;;;;;6.09;79.48;98056.44;5092241;28;20030;-48
2022/01/05 04:58:09;;;;;;;5.45;2.25;;;;;;;6.08;79.54;98056.66;5092200;28;20028;-48
2022/01/05 05:00:35;;;;;;;5.25;3.60;;;;;;;5.98;79.55;98056.97;5090835;28;20089;-48
2022/01/05 05:03:01;;;;;;;2.17;1.25;;;;;;;6.31;81.06;98069.47;5092132;28;20016;-49
2022/01/05 05:05:27;;;;;;;3.30;1.33;;;;;;;6.38;80.27;98067.72;5092100;28;20058;-49
2022/01/05 05:07:52;;;;;;;92.70;5.38;;;;;;;6.39;80.73;98079.75;5092037;28;20020;-49
2022/01/05 05:10:18;;;;;;;2.63;0.70;;;;;;;6.29;80.48;98074.06;5090633;28;20024;-48
2022/01/05 05:12:44;;;;;;;3.00;0.68;;;;;;;6.13;80.83;98082.94;5090642;28;20579;-49
2022/01/05 05:15:10;;;;;;;22.23;16.88;;;;;;;6.10;81.71;98078.91;5091955;28;20016;-48
2022/01/05 05:17:36;;;;;;;5.82;2.85;;;;;;;6.29;81.80;98074.06;5091920;28;20026;-47
2022/01/05 05:20:02;;;;;;;11.43;5.82;;;;;;;6.37;82.57;98079.94;5091881;28;20544;-49
2022/01/05 05:22:28;;;;;;;4.75;3.35;;;;;;;6.60;82.42;98087.53;5091950;28;20032;-49
2022/01/05 05:24:54;;;;;;;15.30;11.02;;;;;;;6.88;82.29;98085.91;5091912;28;20109;-48
2022/01/05 05:27:19;;;;;;;1.80;1.70;;;;;;;6.98;82.33;98089.81;5091856;28;20054;-48
2022/01/05 05:29:45;;;;;;;7.18;3.90;;;;;;;6.91;81.34;98090.75;5091771;28;20020;-49
2022/01/05 05:32:11;;;;;;;1.55;1.35;;;;;;;6.89;81.81;98101.38;5091839;28;20073;-48
2022/01/05 05:34:37;;;;;;;5.10;1.33;;;;;;;6.79;81.02;98093.88;5091789;28;20027;-49
2022/01/05 05:37:03;;;;;;;3.92;1.42;;;;;;;6.76;81.16;98096.88;5090470;28;20105;-49
2022/01/05 05:39:28;;;;;;;6.50;1.83;;;;;;;6.82;81.55;98097.91;5091768;28;20463;-49
2022/01/05 05:41:54;;;;;;;5.25;0.75;;;;;;;6.80;81.17;98097.28;5095307;28;20016;-49
2022/01/05 05:44:20;;;;;;;4.72;0.60;;;;;;;6.62;80.84;98097.78;5095890;28;20478;-49
2022/01/05 05:46:45;;;;;;;4.75;1.02;;;;;;;6.56;81.36;98107.16;5094242;28;20557;-49
2022/01/05 05:49:11;;;;;;;3.63;0.95;;;;;;;6.53;81.25;98107.53;5095737;28;20084;-48
2022/01/05 05:51:37;;;;;;;5.35;2.58;;;;;;;6.54;81.33;98110.94;5095702;28;20024;-49
2022/01/05 05:54:04;;;;;;;2.38;0.95;;;;;;;6.59;80.63;98111.97;5095641;28;20028;-49
2022/01/05 05:56:29;;;;;;;3.15;0.70;;;;;;;6.60;80.61;98113.63;5095619;28;20557;-49
2022/01/05 05:58:55;;;;;;;2.97;1.00;;;;;;;6.59;81.38;98111.97;5095606;28;20112;-49
2022/01/05 06:01:21;;;;;;;1.63;0.77;;;;;;;6.56;80.67;98114.16;5095492;28;20028;-49
2022/01/05 06:03:46;;;;;;;2.88;1.02;;;;;;;6.58;80.80;98125.22;5094230;28;20111;-49
2022/01/05 06:06:12;;;;;;;3.58;1.45;;;;;;;6.73;80.83;98125.13;5094225;28;20020;-49
2022/01/05 06:08:39;;;;;;;6.78;1.08;;;;;;;6.86;81.31;98129.63;5095344;28;20224;-48
2022/01/05 06:11:06;;;;;;;2.03;0.65;;;;;;;6.90;80.33;98126.47;5095394;28;20020;-48
2022/01/05 06:13:32;;;;;;;6.18;0.90;;;;;;;6.91;79.78;98129.88;5095296;28;20043;-49
2022/01/05 06:15:58;;;;;;;4.68;1.58;;;;;;;6.80;79.71;98134.63;5095352;28;20024;-48
2022/01/05 06:18:24;;;;;;;2.58;1.00;;;;;;;6.72;80.66;98139.16;5095258;28;20486;-48
2022/01/05 06:20:49;;;;;;;5.40;0.65;;;;;;;6.70;79.87;98134.16;5095185;28;20024;-48
2022/01/05 06:23:15;;;;;;;2.47;0.70;;;;;;;6.71;80.25;98135.75;5095193;28;20055;-48
2022/01/05 06:25:41;;;;;;;2.25;0.63;;;;;;;6.66;79.60;98142.50;5095046;28;20453;-48
2022/01/05 06:28:11;;;;;;;4.80;1.20;;;;;;;6.55;79.54;98143.84;5095110;28;20024;-49
2022/01/05 06:30:40;;;;;;;3.47;0.82;;;;;;;6.60;80.08;98154.53;5095236;28;20020;-49
2022/01/05 06:33:07;;;;;;;5.07;2.00;;;;;;;6.64;80.08;98158.38;5093658;28;20067;-49
2022/01/05 06:35:33;;;;;;;1.38;0.93;;;;;;;6.58;78.91;98151.31;5094916;28;20016;-48
2022/01/05 06:37:59;;;;;;;7.80;2.15;;;;;;;6.66;80.35;98145.13;5093556;28;20024;-47
2022/01/05 06:40:25;;;;;;;5.28;1.50;;;;;;;6.66;79.18;98142.50;5094774;28;20020;-49
2022/01/05 06:42:51;;;;;;;5.95;0.90;;;;;;;6.59;78.87;98143.28;5094749;28;20046;-49
2022/01/05 06:45:17;;;;;;;4.95;1.00;;;;;;;6.36;77.41;98155.72;5094678;28;20489;-49
2022/01/05 06:47:43;;;;;;;4.68;1.42;;;;;;;6.33;78.92;98159.47;5094427;28;20047;-49
2022/01/05 06:50:10;;;;;;;11.20;1.40;;;;;;;6.56;78.69;98168.91;5093207;28;20024;-49
2022/01/05 06:52:36;;;;;;;9.55;1.65;;;;;;;6.82;78.78;98160.50;5092542;28;20020;-49
2022/01/05 06:55:03;;;;;;;5.55;2.53;;;;;;;6.98;77.33;98162.84;5094472;28;20024;-49
2022/01/05 06:57:29;;;;;;;10.98;2.97;;;;;;;6.97;75.80;98163.81;5094438;28;20020;-48
2022/01/05 06:59:54;;;;;;;3.60;1.17;;;;;;;6.95;75.65;98159.81;5094439;28;20035;-49
2022/01/05 07:02:20;;;;;;;8.63;2.75;;;;;;;6.93;75.25;98160.00;5094339;28;20023;-49
2022/01/05 07:04:46;;;;;;;2.53;1.00;;;;;;;6.90;74.23;98164.78;5094373;28;20397;-49
2022/01/05 07:07:12;;;;;;;6.97;1.10;;;;;;;6.82;74.13;98170.94;5094250;28;20021;-48
2022/01/05 07:09:37;;;;;;;6.28;1.27;;;;;;;6.76;73.96;98179.50;5094389;28;20024;-48
2022/01/05 07:12:03;;;;;;;2.72;0.90;;;;;;;6.70;74.17;98164.63;5094227;28;20020;-49
2022/01/05 07:14:29;;;;;;;16.60;4.40;;;;;;;6.70;73.61;98175.88;5092773;28;20027;-49
2022/01/05 07:16:55;;;;;;;8.68;1.10;;;;;;;6.82;73.06;98178.75;5092772;28;20173;-49
2022/01/05 07:19:21;;;;;;;1.23;0.85;;;;;;;6.89;72.61;98184.03;5094048;28;20028;-49
2022/01/05 07:21:48;;;;;;;7.80;1.38;;;;;;;6.98;72.62;98182.88;5092633;28;20016;-48
2022/01/05 07:24:17;;;;;;;13.52;1.67;;;;;;;7.06;72.43;98195.00;5093941;28;20051;-50
2022/01/05 07:26:44;;;;;;;4.05;1.13;;;;;;;6.98;70.79;98182.88;5093862;28;20059;-48
2022/01/05 07:29:12;;;;;;;5.35;1.33;;;;;;;6.86;68.71;98190.44;5092431;28;20028;-50
2022/01/05 07:31:37;;;;;;;3.03;1.42;;;;;;;6.78;70.63;98193.16;5093772;28;20020;-48
2022/01/05 07:34:03;;;;;;;12.48;3.20;;;;;;;6.73;69.78;98213.78;5092410;28;20016;-48
2022/01/05 07:36:29;;;;;;;4.93;1.25;;;;;;;6.71;70.51;98208.75;5092395;28;20035;-49
2022/01/05 07:38:54;;;;;;;5.90;1.33;;;;;;;6.70;69.54;98222.81;5093661;28;20035;-48
2022/01/05 07:41:20;;;;;;;3.72;1.30;;;;;;;6.69;70.78;98228.19;5093603;28;20453;-49
2022/01/05 07:43:46;;;;;;;6.80;1.58;;;;;;;6.75;71.23;98236.06;5093610;28;20179;-48
2022/01/05 07:46:11;;;;;;;7.57;1.40;;;;;;;6.82;70.92;98230.13;5093508;28;20031;-49
2022/01/05 07:48:37;;;;;;;1.30;0.90;;;;;;;7.00;71.72;98238.28;5093244;28;20056;-49
2022/01/05 07:51:03;;;;;;;3.22;1.38;;;;;;;7.08;70.89;98239.97;5092103;28;20024;-48
2022/01/05 07:53:29;;;;;;;3.45;1.52;;;;;;;7.10;69.29;98230.16;5093328;28;20035;-49
2022/01/05 07:55:54;;;;;;;2.65;1.40;;;;;;;7.13;68.55;98258.47;5092044;28;20111;-46
2022/01/05 07:58:21;;;;;;;0.68;0.38;;;;;;;6.68;68.15;98248.25;5093382;28;20393;-47
2022/01/05 08:00:47;;;;;;;5.05;0.68;;;;;;;6.18;68.28;98250.75;5093750;28;20048;-49
2022/01/05 08:03:13;;;;;;;4.90;1.70;;;;;;;5.88;70.21;98269.97;5092838;28;20533;-48
2022/01/05 08:05:38;;;;;;;5.05;0.82;;;;;;;5.67;71.43;98284.47;5091165;28;20071;-47
2022/01/05 08:08:04;;;;;;;6.18;1.30;;;;;;;5.59;73.75;98282.81;5093099;28;20020;-47
2022/01/05 08:10:30;;;;;;;6.80;1.17;;;;;;;5.52;73.14;98291.50;5092945;28;20020;-48
2022/01/05 08:12:56;;;;;;;4.57;0.95;;;;;;;5.49;73.84;98289.22;5093021;28;20462;-48
2022/01/05 08:15:21;;;;;;;3.50;1.15;;;;;;;5.44;73.41;98279.34;5092926;28;20374;-47
2022/01/05 08:17:47;;;;;;;6.72;1.02;;;;;;;5.44;73.27;98296.78;5092961;28;20089;-47
2022/01/05 08:20:14;;;;;;;9.40;3.22;;;;;;;5.43;72.88;98285.53;5092896;28;20070;-45
2022/01/05 08:22:44;;;;;;;3.50;0.95;;;;;;;5.44;71.97;98299.38;5092926;28;20024;-48
2022/01/05 08:25:20;;;;;;;12.05;4.38;;;;;;;5.44;72.31;98307.97;5109605;27;20396;-47
2022/01/05 08:27:47;;;;;;;389.65;308.75;;;;;;;5.58;72.75;98311.59;5109608;28;20040;-47
2022/01/05 08:30:18;;;;;;;36.17;20.63;;;;;;;5.78;72.06;98317.09;5109638;28;20501;-47
2022/01/05 08:32:44;;;;;;;87.68;68.72;;;;;;;5.99;71.80;98319.81;5109600;28;20031;-48
2022/01/05 08:35:11;;;;;;;18.50;12.20;;;;;;;6.15;71.85;98316.22;5109567;28;20020;-47
2022/01/05 08:37:41;;;;;;;134.05;102.28;;;;;;;6.31;70.54;98317.81;5109472;28;20023;-47
2022/01/05 08:40:08;;;;;;;7.60;4.25;;;;;;;6.53;69.72;98315.28;5109687;28;20473;-46
2022/01/05 08:42:33;;;;;;;6.80;2.42;;;;;;;6.61;68.10;98325.59;5108065;28;20059;-46
2022/01/05 08:44:59;;;;;;;6.45;2.70;;;;;;;6.73;69.39;98331.16;5109306;28;20457;-48
2022/01/05 08:47:25;;;;;;;5.25;1.55;;;;;;;6.82;67.70;98331.84;5109315;28;20066;-47
2022/01/05 08:49:51;;;;;;;5.20;1.27;;;;;;;6.85;67.71;98332.28;5109251;28;20028;-47
2022/01/05 08:52:16;;;;;;;7.22;1.80;;;;;;;6.98;66.77;98328.97;5109478;28;20066;-46
2022/01/05 08:54:42;;;;;;;10.27;2.28;;;;;;;7.18;67.88;98330.00;5109154;28;20016;-47
2022/01/05 08:57:08;;;;;;;8.02;1.15;;;;;;;7.38;67.20;98330.19;5109117;28;20035;-47
2022/01/05 08:59:34;;;;;;;3.78;1.50;;;;;;;7.48;65.60;98332.44;5109061;28;20027;-48
2022/01/05 09:02:00;;;;;;;8.25;1.73;;;;;;;7.44;64.38;98343.47;5109030;28;20020;-48
2022/01/05 09:04:26;;;;;;;8.30;1.30;;;;;;;7.31;63.64;98346.78;5107546;28;20090;-48
2022/01/05 09:06:52;;;;;;;3.58;1.30;;;;;;;7.15;63.65;98329.56;5108963;28;20035;-47
2022/01/05 09:09:18;;;;;;;6.93;1.10;;;;;;;7.00;63.35;98355.69;5108948;28;20061;-48
2022/01/05 09:11:44;;;;;;;5.57;1.25;;;;;;;6.90;65.74;98358.63;5107743;28;20036;-49
2022/01/05 09:14:09;;;;;;;15.13;2.45;;;;;;;6.85;65.10;98341.91;5108849;28;20028;-48
2022/01/05 09:16:35;;;;;;;9.40;4.82;;;;;;;6.90;65.68;98353.41;5108729;28;20024;-48
2022/01/05 09:19:03;;;;;;;3.35;1.40;;;;;;;6.85;65.23;98353.16;5108765;28;20099;-48
2022/01/05 09:21:28;;;;;;;4.50;1.15;;;;;;;6.70;64.82;98336.72;5108641;28;20036;-48
2022/01/05 09:23:54;;;;;;;7.30;1.50;;;;;;;6.57;64.46;98369.47;5108343;28;20047;-48
2022/01/05 09:26:20;;;;;;;4.97;1.63;;;;;;;6.52;64.93;98366.63;5108520;28;20157;-47
2022/01/05 09:28:45;;;;;;;12.05;1.77;;;;;;;6.52;66.99;98366.63;5108527;28;20028;-47
2022/01/05 09:31:12;;;;;;;12.77;5.22;;;;;;;6.53;66.33;98365.63;5108757;28;20047;-47
2022/01/05 09:33:38;;;;;;;8.20;1.48;;;;;;;6.45;65.21;98370.94;5108431;28;20020;-48
2022/01/05 09:36:12;;;;;;;16.73;8.05;;;;;;;6.30;64.92;98373.56;5098101;28;20093;-47
2022/01/05 09:44:12;;;;;;;9.60;1.80;;;;;;;6.15;68.03;98394.38;5094636;28;20064;-48
2022/01/05 09:47:00;;;;;;;7.00;2.53;;;;;;;6.05;68.80;98409.47;5094658;28;20016;-48
2022/01/05 09:49:37;;;;;;;10.13;1.88;;;;;;;6.03;69.56;98408.03;5094596;28;20032;-46
2022/01/05 09:52:13;;;;;;;7.93;2.45;;;;;;;5.88;70.98;98416.59;5094506;28;20024;-49
2022/01/05 09:54:42;;;;;;;9.30;2.28;;;;;;;5.78;71.79;98422.06;5094408;28;20028;-46
2022/01/05 09:57:09;;;;;;;6.45;1.70;;;;;;;5.69;71.03;98427.50;5094416;28;20035;-47
2022/01/05 09:59:36;;;;;;;9.80;2.17;;;;;;;5.51;71.36;98425.19;5094408;28;20077;-48
2022/01/05 10:02:03;;;;;;;7.43;1.77;;;;;;;5.36;71.33;98418.16;5094316;28;20020;-48
2022/01/05 10:04:30;;;;;;;8.38;1.90;;;;;;;5.36;71.98;98425.97;5094165;28;20055;-47
2022/01/05 10:06:56;;;;;;;11.07;2.00;;;;;;;5.41;72.19;98422.81;5092859;28;20046;-47
2022/01/05 10:09:22;;;;;;;11.10;2.72;;;;;;;5.51;73.19;98440.81;5094210;28;20103;-48
2022/01/05 10:11:48;;;;;;;11.77;3.42;;;;;;;5.62;72.08;98437.00;5094128;28;20023;-48
2022/01/05 10:14:13;;;;;;;7.15;1.83;;;;;;;5.65;71.84;98447.88;5094137;28;20064;-48
2022/01/05 10:16:40;;;;;;;16.92;3.38;;;;;;;5.74;72.16;98436.41;5094032;28;20020;-47
2022/01/05 10:19:08;;;;;;;5.85;1.98;;;;;;;5.87;70.72;98441.03;5092648;28;20459;-47
2022/01/05 10:21:36;;;;;;;15.10;1.73;;;;;;;5.89;68.78;98430.44;5093935;28;20367;-47
2022/01/05 10:24:03;;;;;;;10.57;1.90;;;;;;;5.89;67.34;98431.22;5092235;28;20589;-47
2022/01/05 10:26:39;;;;;;;6.57;1.83;;;;;;;5.91;65.43;98426.66;5093827;28;20035;-47
2022/01/05 10:29:06;;;;;;;16.63;3.28;;;;;;;5.94;66.10;98433.34;5092589;28;20481;-47
2022/01/05 10:31:43;;;;;;;13.38;2.33;;;;;;;6.20;66.64;98440.78;5093610;28;20498;-48
2022/01/05 10:34:21;;;;;;;6.95;1.42;;;;;;;6.27;65.62;98433.84;5092468;28;20028;-47
2022/01/05 10:36:49;;;;;;;7.10;1.58;;;;;;;6.31;64.38;98434.31;5092388;28;20032;-47
2022/01/05 10:39:20;;;;;;;14.23;2.55;;;;;;;6.36;62.87;98435.38;5093654;28;20059;-48
2022/01/05 10:41:47;;;;;;;4.70;1.45;;;;;;;7.35;62.34;98424.50;5093592;28;20489;-47
2022/01/05 10:44:21;;;;;;;4.40;1.58;;;;;;;8.26;57.23;98412.56;5093454;28;20020;-47
2022/01/05 10:46:50;;;;;;;9.77;1.60;;;;;;;9.25;55.88;98421.88;5092456;28;20107;-47
2022/01/05 10:49:38;;;;;;;5.95;1.67;;;;;;;9.03;53.70;98421.19;5092116;28;20024;-48
2022/01/05 10:52:26;;;;;;;8.23;1.73;;;;;;;8.20;53.61;98417.56;5093376;28;20043;-48
2022/01/05 10:54:54;;;;;;;7.97;1.60;;;;;;;8.13;55.57;98426.34;5091951;28;20543;-47
2022/01/05 10:57:20;;;;;;;9.80;1.85;;;;;;;8.98;56.35;98422.59;5091937;28;20493;-48
2022/01/05 10:59:49;;;;;;;7.95;1.60;;;;;;;10.03;55.39;98430.00;5093502;28;20031;-48
2022/01/05 11:02:34;;;;;;;5.47;1.33;;;;;;;11.04;49.96;98406.94;5093127;28;20107;-48
2022/01/05 11:05:06;;;;;;;8.68;1.45;;;;;;;11.59;46.75;98413.25;5093125;28;20028;-47
2022/01/05 11:07:34;;;;;;;6.70;1.45;;;;;;;11.83;46.63;98418.75;5093144;28;20024;-47
2022/01/05 11:10:05;;;;;;;5.40;1.67;;;;;;;12.66;47.37;98416.75;5092965;28;20520;-46
2022/01/05 11:12:33;;;;;;;8.15;1.23;;;;;;;12.95;43.01;98405.44;5093015;28;20032;-48
2022/01/05 11:15:28;;;;;;;9.90;1.58;;;;;;;11.92;41.80;98404.31;5091717;28;20493;-48
2022/01/05 11:18:20;;;;;;;6.55;1.58;;;;;;;10.63;44.46;98421.25;5092923;28;20016;-47
2022/01/05 11:20:57;;;;;;;5.50;1.40;;;;;;;10.00;45.67;98412.84;5091535;28;20031;-47
2022/01/05 11:23:26;;;;;;;188.73;142.73;;;;;;;9.53;45.21;98424.34;5092469;28;20046;-48
2022/01/05 11:25:53;;;;;;;24.80;15.18;;;;;;;9.55;46.43;98428.34;5092781;28;20028;-47
2022/01/05 11:28:22;;;;;;;9.20;2.60;;;;;;;9.40;45.35;98419.91;5092688;28;20532;-45
2022/01/05 11:30:50;;;;;;;9.13;2.38;;;;;;;8.99;45.62;98420.78;5092896;28;20020;-48
2022/01/05 11:33:18;;;;;;;14.93;2.95;;;;;;;10.00;46.79;98423.34;5092511;28;20393;-48
2022/01/05 11:35:44;;;;;;;7.72;1.60;;;;;;;11.56;43.21;98420.75;5092536;28;20027;-48
2022/01/05 11:38:11;;;;;;;9.77;2.13;;;;;;;11.49;39.19;98406.84;5091158;28;20428;-47
2022/01/05 11:40:43;;;;;;;5.70;1.45;;;;;;;10.77;40.76;98428.06;5092505;28;20493;-48
2022/01/05 11:43:15;;;;;;;8.05;1.50;;;;;;;11.14;41.24;98409.91;5092379;28;20036;-48
2022/01/05 11:45:47;;;;;;;8.18;1.88;;;;;;;11.80;42.01;98419.97;5092421;28;20443;-48